Time;durP1;ratioP1;P1;durP2;ratioP2;P2;SDS_P1;SDS_P2;PMS_P1;PMS_P2;Temp;Humidity;BMP_temperature;BMP_pressure;BME280_temperature;BME280_humidity;BME280_pressure;Samples;Min_cycle;Max_cycle;Signal;HPM_P1;HPM_P2
2022/04/22 00:02:20;;;;;;;12.10;6.32;;;11.40;99.90;;;;;;5023351;28;20057;-72
2022/04/22 00:04:46;;;;;;;16.45;6.72;;;11.40;99.90;;;;;;5023287;28;20036;-72
2022/04/22 00:07:12;;;;;;;12.52;6.80;;;11.40;99.90;;;;;;5022140;28;20140;-72
2022/04/22 00:09:38;;;;;;;15.80;7.20;;;11.30;99.90;;;;;;5023672;28;20049;-72
2022/04/22 00:12:04;;;;;;;14.57;7.22;;;11.30;99.90;;;;;;5020769;28;20046;-72
2022/04/22 00:14:30;;;;;;;10.13;7.15;;;11.30;99.90;;;;;;5021309;28;20102;-74
2022/04/22 00:16:56;;;;;;;12.05;7.32;;;11.20;99.90;;;;;;5021695;28;20132;-73
2022/04/22 00:19:21;;;;;;;11.27;7.18;;;11.20;99.90;;;;;;5022905;28;20049;-73
2022/04/22 00:21:48;;;;;;;12.25;7.05;;;11.20;99.90;;;;;;5008096;28;20045;-74
2022/04/22 00:24:16;;;;;;;13.55;7.45;;;11.10;99.90;;;;;;5007617;28;20087;-73
2022/04/22 00:26:42;;;;;;;14.68;7.55;;;11.00;99.90;;;;;;5026937;28;20052;-73
2022/04/22 00:29:08;;;;;;;11.45;7.68;;;11.00;99.90;;;;;;5027224;28;20046;-73
2022/04/22 00:31:34;;;;;;;15.05;8.18;;;10.90;99.90;;;;;;5042009;28;20037;-73
2022/04/22 00:34:00;;;;;;;13.18;7.60;;;10.90;99.90;;;;;;5024671;28;20045;-73
2022/04/22 00:36:25;;;;;;;10.90;7.88;;;10.90;99.90;;;;;;5010205;28;20060;-73
2022/04/22 00:38:51;;;;;;;10.93;7.75;;;10.90;99.90;;;;;;5024130;28;20128;-73
2022/04/22 00:41:18;;;;;;;12.77;7.25;;;10.90;99.90;;;;;;5023859;28;20072;-74
2022/04/22 00:43:46;;;;;;;14.27;8.05;;;10.80;99.90;;;;;;5020769;28;20071;-73
2022/04/22 00:46:12;;;;;;;15.27;8.18;;;10.80;99.90;;;;;;5024028;28;20040;-73
2022/04/22 00:48:39;;;;;;;14.07;8.38;;;10.80;99.90;;;;;;5028360;28;20100;-73
2022/04/22 00:51:06;;;;;;;13.48;8.40;;;10.80;99.90;;;;;;5027819;28;20337;-73
2022/04/22 00:53:35;;;;;;;13.57;7.97;;;10.70;99.90;;;;;;5027478;28;20041;-72
2022/04/22 00:56:03;;;;;;;14.00;7.80;;;10.70;99.90;;;;;;5026208;28;20052;-72
2022/04/22 00:58:29;;;;;;;11.80;7.63;;;10.60;99.90;;;;;;5026548;28;21922;-72
2022/04/22 01:00:54;;;;;;;13.32;8.80;;;10.60;99.90;;;;;;5027341;28;20052;-72
2022/04/22 01:03:20;;;;;;;12.85;8.38;;;10.60;99.90;;;;;;5025930;28;20041;-72
2022/04/22 01:11:17;;;;;;;15.05;9.00;;;10.50;99.90;;;;;;5023474;28;20056;-72
2022/04/22 01:13:44;;;;;;;15.70;9.43;;;10.50;99.90;;;;;;5023002;28;20045;-72
2022/04/22 01:16:10;;;;;;;14.38;9.02;;;10.40;99.90;;;;;;5022460;28;20065;-72
2022/04/22 01:18:37;;;;;;;17.20;9.73;;;10.40;99.90;;;;;;5027260;28;20072;-72
2022/04/22 01:21:03;;;;;;;15.77;9.52;;;10.40;99.90;;;;;;5025458;28;20045;-72
2022/04/22 01:23:29;;;;;;;17.70;10.23;;;10.40;99.90;;;;;;5025798;28;20040;-72
2022/04/22 01:25:56;;;;;;;16.02;9.73;;;10.30;99.90;;;;;;5025828;28;20052;-72
2022/04/22 01:28:23;;;;;;;21.10;10.85;;;10.30;99.90;;;;;;5026041;28;20041;-72
2022/04/22 01:30:57;;;;;;;14.60;10.32;;;10.20;99.90;;;;;;5025527;28;20049;-72
2022/04/22 01:33:23;;;;;;;16.92;10.52;;;10.20;99.90;;;;;;5057083;28;20033;-72
2022/04/22 01:35:49;;;;;;;20.55;11.32;;;10.20;99.90;;;;;;5023374;28;20045;-72
2022/04/22 01:38:14;;;;;;;16.33;10.90;;;10.10;99.90;;;;;;5024973;28;20132;-72
2022/04/22 01:40:40;;;;;;;17.48;10.45;;;10.10;99.90;;;;;;5024216;28;20068;-72
2022/04/22 01:43:06;;;;;;;17.83;11.07;;;10.10;99.90;;;;;;5025994;28;20034;-72
2022/04/22 01:45:31;;;;;;;20.02;11.45;;;10.10;99.90;;;;;;5026671;28;20037;-72
2022/04/22 01:47:57;;;;;;;22.40;12.23;;;10.00;99.90;;;;;;5009562;28;20038;-72
2022/04/22 01:50:23;;;;;;;19.20;12.13;;;10.00;99.90;;;;;;5025133;28;20124;-72
2022/04/22 01:52:49;;;;;;;18.25;10.95;;;10.00;99.90;;;;;;5025237;28;20052;-72
2022/04/22 01:55:15;;;;;;;21.70;12.38;;;9.90;99.90;;;;;;5008205;28;20044;-72
2022/04/22 01:57:41;;;;;;;19.45;11.55;;;9.90;99.90;;;;;;5023893;28;20594;-72
2022/04/22 02:00:08;;;;;;;20.77;11.63;;;9.90;99.90;;;;;;5022809;28;20136;-72
2022/04/22 02:02:34;;;;;;;23.02;11.52;;;9.90;99.90;;;;;;5005261;28;20063;-71
2022/04/22 02:05:00;;;;;;;18.05;11.70;;;9.90;99.90;;;;;;5021592;28;20112;-72
2022/04/22 02:07:26;;;;;;;19.58;11.63;;;9.80;99.90;;;;;;5020198;28;20037;-72
2022/04/22 02:09:52;;;;;;;18.55;11.75;;;9.80;99.90;;;;;;5022393;28;20499;-73
2022/04/22 02:12:18;;;;;;;19.63;11.45;;;9.80;99.90;;;;;;5023294;28;20056;-73
2022/04/22 02:14:43;;;;;;;18.10;11.15;;;9.80;99.90;;;;;;5023631;28;20052;-73
2022/04/22 02:17:09;;;;;;;20.27;11.70;;;9.80;99.90;;;;;;5022038;28;20047;-73
2022/04/22 02:19:35;;;;;;;18.83;10.93;;;9.80;99.90;;;;;;5025171;28;20049;-73
2022/04/22 02:22:00;;;;;;;18.75;12.25;;;9.80;99.90;;;;;;5023170;28;20045;-73
2022/04/22 02:24:26;;;;;;;18.88;11.90;;;9.80;99.90;;;;;;5024946;28;20426;-73
2022/04/22 02:29:20;;;;;;;18.17;11.75;;;9.70;99.90;;;;;;4949023;28;20558;-72
2022/04/22 02:31:46;;;;;;;22.00;11.60;;;9.60;99.90;;;;;;4952491;28;20564;-72
2022/04/22 02:34:12;;;;;;;22.27;12.05;;;9.60;99.90;;;;;;4950054;28;20039;-72
2022/04/22 02:36:41;;;;;;;22.30;11.27;;;9.50;99.90;;;;;;4973385;28;20058;-72
2022/04/22 02:39:07;;;;;;;18.48;10.95;;;9.50;99.90;;;;;;4976161;28;20504;-72
2022/04/22 02:47:01;;;;;;;17.88;11.57;;;9.40;99.90;;;;;;4946914;28;20477;-71
2022/04/22 02:49:26;;;;;;;23.65;11.55;;;9.40;99.90;;;;;;4945708;28;20047;-71
2022/04/22 02:51:52;;;;;;;18.92;11.30;;;9.30;99.90;;;;;;4948524;28;20050;-72
2022/04/22 02:54:18;;;;;;;21.17;12.10;;;9.30;99.90;;;;;;4977089;28;20058;-71
2022/04/22 02:56:44;;;;;;;21.90;11.40;;;9.20;99.90;;;;;;4944464;28;20057;-71
2022/04/22 02:59:10;;;;;;;20.23;10.98;;;9.20;99.90;;;;;;4945681;28;20378;-71
2022/04/22 03:01:35;;;;;;;21.13;11.35;;;9.20;99.90;;;;;;4945693;28;20095;-71
2022/04/22 03:04:01;;;;;;;19.17;11.95;;;9.10;99.90;;;;;;4946062;28;20090;-71
2022/04/22 03:06:27;;;;;;;18.40;11.27;;;9.10;99.90;;;;;;4945987;28;20032;-71
2022/04/22 03:08:53;;;;;;;19.10;11.70;;;9.10;99.90;;;;;;4944075;28;20047;-72
2022/04/22 03:11:21;;;;;;;18.42;12.00;;;9.00;99.90;;;;;;4944035;28;20039;-71
2022/04/22 03:13:51;;;;;;;19.38;11.55;;;9.00;99.90;;;;;;4956530;28;20050;-71
2022/04/22 03:16:18;;;;;;;19.98;10.75;;;9.10;99.90;;;;;;4945965;28;20035;-72
2022/04/22 03:18:43;;;;;;;17.23;10.65;;;9.00;99.90;;;;;;4947368;28;20446;-71
2022/04/22 03:21:09;;;;;;;16.00;10.70;;;9.00;99.90;;;;;;4948797;28;20134;-71
2022/04/22 03:23:35;;;;;;;22.48;10.50;;;9.00;99.90;;;;;;4978307;28;20039;-72
2022/04/22 03:26:00;;;;;;;15.13;9.27;;;8.90;99.90;;;;;;4946482;28;20039;-71
2022/04/22 03:28:26;;;;;;;19.20;10.18;;;8.90;99.90;;;;;;4942803;28;20039;-72
2022/04/22 03:30:52;;;;;;;18.05;10.35;;;8.80;99.90;;;;;;4945161;28;20043;-72
2022/04/22 03:33:19;;;;;;;15.10;9.40;;;8.80;99.90;;;;;;4961196;28;20047;-72
2022/04/22 03:35:50;;;;;;;17.88;9.45;;;8.80;99.90;;;;;;4977075;28;20390;-72
2022/04/22 03:38:16;;;;;;;17.13;8.65;;;8.80;99.90;;;;;;4941273;28;20453;-72
2022/04/22 03:40:42;;;;;;;17.27;9.38;;;8.80;99.90;;;;;;4940347;28;20383;-72
2022/04/22 03:43:08;;;;;;;15.98;9.10;;;8.80;99.90;;;;;;4942603;29;20035;-71
2022/04/22 03:45:34;;;;;;;14.98;8.40;;;8.70;99.90;;;;;;4942914;28;20035;-72
2022/04/22 03:47:59;;;;;;;15.82;8.45;;;8.70;99.90;;;;;;4978131;28;20043;-72
2022/04/22 03:50:26;;;;;;;16.63;8.45;;;8.70;99.90;;;;;;4944593;28;20086;-72
2022/04/22 03:52:52;;;;;;;15.52;8.68;;;8.70;99.90;;;;;;4977178;28;20047;-72
2022/04/22 03:55:19;;;;;;;12.77;8.20;;;8.70;99.90;;;;;;4978369;28;20478;-72
2022/04/22 04:00:29;;;;;;;14.38;8.27;;;8.60;99.90;;;;;;4944650;28;20065;-72
2022/04/22 04:02:54;;;;;;;23.88;7.63;;;8.50;99.90;;;;;;4965123;28;20047;-72
2022/04/22 04:05:20;;;;;;;10.73;6.72;;;8.50;99.90;;;;;;4948065;28;20067;-72
2022/04/22 04:07:46;;;;;;;12.85;7.35;;;8.50;99.90;;;;;;4950210;28;20039;-72
2022/04/22 04:16:15;;;;;;;12.00;6.50;;;8.40;99.90;;;;;;4979971;28;20505;-71
2022/04/22 04:18:35;;;;;;;11.60;6.93;;;8.40;99.90;;;;;;4949744;28;20446;-71
2022/04/22 04:23:48;;;;;;;12.02;6.70;;;8.40;99.90;;;;;;4980040;28;20513;-71
2022/04/22 04:26:15;;;;;;;13.82;6.80;;;8.40;99.90;;;;;;4947710;28;20497;-71
2022/04/22 04:28:41;;;;;;;11.25;6.55;;;8.40;99.90;;;;;;4944673;28;20098;-72
2022/04/22 04:31:08;;;;;;;12.88;6.63;;;8.40;99.90;;;;;;4950179;28;20042;-72
2022/04/22 04:33:37;;;;;;;11.55;6.43;;;8.40;99.90;;;;;;4950925;28;20129;-71
2022/04/22 04:36:03;;;;;;;10.50;6.57;;;8.40;99.90;;;;;;4942472;28;20502;-72
2022/04/22 04:38:29;;;;;;;10.85;6.10;;;8.40;99.90;;;;;;4949807;28;20492;-72
2022/04/22 04:40:55;;;;;;;14.77;6.60;;;8.40;99.90;;;;;;4948694;29;20046;-72
2022/04/22 04:43:21;;;;;;;11.60;6.30;;;8.40;99.90;;;;;;4977393;28;20054;-72
2022/04/22 04:45:47;;;;;;;10.63;5.75;;;8.30;99.90;;;;;;4978055;28;20043;-71
2022/04/22 04:48:13;;;;;;;11.40;6.53;;;8.30;99.90;;;;;;4979739;28;20051;-70
2022/04/22 04:50:46;;;;;;;9.93;5.45;;;8.30;99.90;;;;;;4947469;28;20050;-71
2022/04/22 04:53:14;;;;;;;8.93;6.22;;;8.30;99.90;;;;;;4977488;28;20062;-71
2022/04/22 04:55:41;;;;;;;11.45;6.13;;;8.30;99.90;;;;;;4978230;28;20047;-71
2022/04/22 04:58:07;;;;;;;11.68;5.68;;;8.40;99.90;;;;;;4947692;28;20508;-71
2022/04/22 05:00:32;;;;;;;8.95;5.57;;;8.30;99.90;;;;;;4947123;28;20047;-74
2022/04/22 05:02:59;;;;;;;12.15;6.22;;;8.30;99.90;;;;;;4946415;28;20039;-71
2022/04/22 05:05:25;;;;;;;11.52;5.80;;;8.30;99.90;;;;;;4979151;28;20402;-71
2022/04/22 05:07:57;;;;;;;10.07;5.65;;;8.30;99.90;;;;;;4944834;28;20165;-70
2022/04/22 05:10:34;;;;;;;8.90;5.32;;;8.30;99.90;;;;;;4978564;28;20089;-71
2022/04/22 05:13:00;;;;;;;9.73;5.35;;;8.30;99.90;;;;;;4946506;28;20073;-70
2022/04/22 05:15:27;;;;;;;10.45;5.07;;;8.30;99.90;;;;;;4946505;28;20051;-72
2022/04/22 05:17:54;;;;;;;8.80;5.30;;;8.30;99.90;;;;;;4978069;28;20043;-72
2022/04/22 05:20:23;;;;;;;8.48;5.40;;;8.40;99.90;;;;;;4928876;29;20050;-70
2022/04/22 05:22:48;;;;;;;8.25;4.72;;;8.30;99.90;;;;;;4947712;28;20043;-73
2022/04/22 05:25:15;;;;;;;6.82;4.93;;;8.30;99.90;;;;;;4948118;28;20050;-70
2022/04/22 05:27:41;;;;;;;9.45;5.35;;;8.40;99.90;;;;;;4977666;28;20039;-71
2022/04/22 05:32:53;;;;;;;8.82;4.95;;;8.50;99.90;;;;;;4951820;29;20702;-70
2022/04/22 05:35:21;;;;;;;10.75;5.45;;;8.50;99.90;;;;;;4967597;28;20386;-71
2022/04/22 05:37:48;;;;;;;11.98;5.70;;;8.60;99.90;;;;;;4967857;28;20871;-71
2022/04/22 05:40:19;;;;;;;9.80;5.07;;;8.60;99.90;;;;;;4952958;28;20046;-70
2022/04/22 05:42:47;;;;;;;6.75;4.90;;;8.70;99.90;;;;;;4979274;28;20058;-71
2022/04/22 05:45:14;;;;;;;8.90;5.03;;;8.70;99.90;;;;;;4953230;28;20434;-71
2022/04/22 05:47:41;;;;;;;9.30;5.63;;;8.80;99.90;;;;;;4951519;28;20135;-71
2022/04/22 05:50:08;;;;;;;9.00;5.43;;;8.80;99.90;;;;;;4952857;28;20562;-70
2022/04/22 05:52:36;;;;;;;9.27;5.40;;;8.80;99.90;;;;;;4953331;28;20397;-71
2022/04/22 05:55:02;;;;;;;7.00;4.63;;;8.80;99.90;;;;;;4951961;28;20055;-71
2022/04/22 05:57:30;;;;;;;9.00;5.00;;;8.80;99.90;;;;;;4982327;28;20398;-70
2022/04/22 05:59:56;;;;;;;7.97;5.03;;;8.90;99.90;;;;;;4984286;28;20063;-71
2022/04/22 06:02:21;;;;;;;9.18;5.13;;;8.90;99.90;;;;;;4951321;28;20043;-70
2022/04/22 06:04:47;;;;;;;7.15;4.93;;;8.90;99.90;;;;;;4962076;28;20078;-70
2022/04/22 06:07:12;;;;;;;9.35;4.85;;;9.00;99.90;;;;;;4956161;28;20035;-71
2022/04/22 06:12:22;;;;;;;6.88;4.82;;;9.00;99.90;;;;;;4964146;28;20178;-70
2022/04/22 06:14:48;;;;;;;8.55;4.93;;;9.10;99.90;;;;;;4969012;28;20133;-70
2022/04/22 06:17:14;;;;;;;10.75;6.25;;;9.10;99.90;;;;;;4969702;28;20079;-71
2022/04/22 06:19:39;;;;;;;11.13;5.07;;;9.10;99.90;;;;;;4951580;28;20493;-71
2022/04/22 06:22:05;;;;;;;7.57;4.95;;;9.10;99.90;;;;;;4953520;28;20066;-71
2022/04/22 06:24:31;;;;;;;8.20;5.43;;;9.10;99.90;;;;;;4954816;28;20082;-71
2022/04/22 06:26:57;;;;;;;7.63;4.88;;;9.10;99.90;;;;;;4975900;28;20378;-71
2022/04/22 06:29:23;;;;;;;7.90;5.00;;;9.10;99.90;;;;;;4953012;28;20043;-71
2022/04/22 06:31:49;;;;;;;7.60;5.05;;;9.20;99.90;;;;;;4950016;28;20047;-70
2022/04/22 06:34:15;;;;;;;9.85;5.20;;;9.20;99.90;;;;;;4952205;28;20090;-71
2022/04/22 06:36:41;;;;;;;9.23;4.68;;;9.20;99.90;;;;;;4949484;28;20043;-70
2022/04/22 06:39:07;;;;;;;7.30;5.00;;;9.20;99.90;;;;;;4949270;28;20054;-71
2022/04/22 06:47:04;;;;;;;10.13;5.10;;;9.40;99.90;;;;;;4948326;28;20085;-71
2022/04/22 06:49:30;;;;;;;8.38;4.68;;;9.50;99.90;;;;;;4953126;28;20031;-71
2022/04/22 06:51:56;;;;;;;11.95;4.97;;;9.50;99.90;;;;;;4950958;28;20414;-71
2022/04/22 06:54:22;;;;;;;8.95;4.85;;;9.60;99.90;;;;;;4967347;28;20039;-71
2022/04/22 06:56:49;;;;;;;7.85;4.47;;;9.70;99.90;;;;;;4949671;28;20046;-71
2022/04/22 06:59:19;;;;;;;8.07;4.50;;;9.80;99.90;;;;;;4950372;28;20039;-71
2022/04/22 07:01:46;;;;;;;8.32;4.70;;;9.90;99.90;;;;;;4946948;28;20135;-72
2022/04/22 07:04:12;;;;;;;8.02;4.60;;;9.90;99.90;;;;;;4949816;28;20043;-72
2022/04/22 07:06:38;;;;;;;5.85;4.20;;;10.00;99.90;;;;;;4953697;28;20043;-71
2022/04/22 07:09:04;;;;;;;7.80;4.38;;;10.10;99.90;;;;;;4946126;28;20075;-73
2022/04/22 07:11:31;;;;;;;10.88;4.72;;;10.20;99.90;;;;;;4958479;28;20058;-70
2022/04/22 07:14:00;;;;;;;8.85;4.82;;;10.30;99.90;;;;;;4944304;28;20098;-72
2022/04/22 07:16:26;;;;;;;9.43;4.90;;;10.40;99.90;;;;;;4945643;28;20152;-72
2022/04/22 07:18:52;;;;;;;8.10;4.53;;;10.50;99.90;;;;;;4944219;28;20138;-74
2022/04/22 07:21:18;;;;;;;7.07;4.53;;;10.60;99.90;;;;;;4958463;28;20043;-72
2022/04/22 07:23:44;;;;;;;8.20;4.65;;;10.70;99.90;;;;;;4960573;28;20089;-72
2022/04/22 07:26:10;;;;;;;7.95;4.47;;;10.90;99.90;;;;;;4945848;28;20043;-72
2022/04/22 07:28:40;;;;;;;10.98;4.80;;;11.00;99.90;;;;;;4947756;28;20078;-72
2022/04/22 07:31:09;;;;;;;6.15;4.60;;;11.10;99.90;;;;;;4951903;29;20046;-72
2022/04/22 07:33:35;;;;;;;7.55;4.15;;;11.30;99.90;;;;;;4951416;28;20047;-72
2022/04/22 07:36:01;;;;;;;10.07;4.70;;;11.30;99.90;;;;;;4952630;28;20046;-72
2022/04/22 07:38:28;;;;;;;7.32;4.43;;;11.40;99.90;;;;;;4950450;28;20051;-72
2022/04/22 07:40:54;;;;;;;9.82;4.10;;;11.50;99.90;;;;;;4948397;28;20051;-72
2022/04/22 07:48:55;;;;;;;7.20;3.83;;;11.80;99.90;;;;;;4946809;28;20043;-72
2022/04/22 07:51:26;;;;;;;5.63;3.88;;;11.90;99.90;;;;;;4949310;28;20039;-72
2022/04/22 07:53:52;;;;;;;5.93;3.85;;;12.00;99.90;;;;;;4966825;28;20105;-72
2022/04/22 07:56:18;;;;;;;8.05;3.70;;;12.20;99.90;;;;;;4949673;28;20133;-72
2022/04/22 07:58:44;;;;;;;8.77;3.78;;;12.30;99.90;;;;;;4951822;28;20059;-72
2022/04/22 08:01:09;;;;;;;6.00;3.70;;;12.50;99.90;;;;;;4951313;28;20035;-72
2022/04/22 08:03:36;;;;;;;8.23;3.83;;;12.50;99.90;;;;;;4973788;28;20572;-72
2022/04/22 08:06:03;;;;;;;7.40;3.70;;;12.60;99.90;;;;;;4951028;29;20078;-72
2022/04/22 08:08:30;;;;;;;6.85;3.30;;;12.70;99.90;;;;;;4982778;28;20067;-72
2022/04/22 08:10:56;;;;;;;6.35;3.85;;;12.80;99.90;;;;;;4950739;28;20043;-72
2022/04/22 08:13:24;;;;;;;5.97;3.33;;;12.90;99.90;;;;;;4983767;28;20086;-72
2022/04/22 08:15:50;;;;;;;7.30;3.10;;;13.00;99.90;;;;;;4951674;29;20058;-72
2022/04/22 08:18:16;;;;;;;5.43;3.20;;;13.00;99.90;;;;;;4950804;28;20047;-72
2022/04/22 08:20:41;;;;;;;8.05;3.53;;;13.20;99.90;;;;;;4951517;28;20057;-72
2022/04/22 08:23:07;;;;;;;6.78;2.78;;;13.30;99.90;;;;;;4949842;28;20044;-72
2022/04/22 08:25:33;;;;;;;5.47;3.08;;;13.40;99.90;;;;;;4967760;28;20066;-72
2022/04/22 08:27:58;;;;;;;5.43;2.80;;;13.50;99.90;;;;;;4952703;28;20070;-73
2022/04/22 08:30:25;;;;;;;7.18;2.88;;;13.60;99.90;;;;;;4952465;29;20070;-72
2022/04/22 08:32:51;;;;;;;6.88;2.92;;;13.70;99.10;;;;;;4952772;29;20082;-72
2022/04/22 08:35:17;;;;;;;11.05;3.33;;;13.70;99.10;;;;;;4949136;29;20083;-71
2022/04/22 08:37:45;;;;;;;5.15;2.50;;;13.80;98.40;;;;;;4950698;28;20043;-73
2022/04/22 08:40:11;;;;;;;9.15;2.75;;;13.90;98.70;;;;;;4949946;28;20390;-72
2022/04/22 08:42:42;;;;;;;6.85;2.63;;;14.10;97.40;;;;;;4950794;29;20050;-72
2022/04/22 08:45:09;;;;;;;8.70;2.70;;;14.20;95.40;;;;;;4949267;28;20256;-72
2022/04/22 08:50:30;;;;;;;4.00;2.72;;;14.40;92.90;;;;;;4960393;28;20039;-72
2022/04/22 08:53:01;;;;;;;5.17;2.60;;;14.50;92.30;;;;;;4986316;28;20050;-72
2022/04/22 08:55:27;;;;;;;4.70;2.38;;;14.70;94.30;;;;;;4963259;28;20039;-71
2022/04/22 08:57:54;;;;;;;9.05;2.65;;;14.90;92.10;;;;;;4955147;28;20126;-72
2022/04/22 09:00:23;;;;;;;4.45;2.20;;;15.00;90.40;;;;;;4959862;28;20055;-72
2022/04/22 09:02:53;;;;;;;10.75;2.33;;;15.00;91.00;;;;;;4972064;28;20097;-72
2022/04/22 09:05:19;;;;;;;7.78;2.35;;;15.10;96.00;;;;;;4951407;29;20424;-73
2022/04/22 09:07:46;;;;;;;5.70;2.30;;;15.20;89.90;;;;;;4969030;28;20058;-72
2022/04/22 09:10:12;;;;;;;5.10;2.50;;;15.40;86.40;;;;;;4949654;28;20043;-73
2022/04/22 09:12:42;;;;;;;4.45;2.22;;;15.50;87.80;;;;;;4956298;29;20043;-72
2022/04/22 09:15:09;;;;;;;5.18;2.33;;;15.50;83.50;;;;;;4956207;29;20043;-72
2022/04/22 09:17:36;;;;;;;4.80;2.60;;;15.70;82.40;;;;;;4955816;28;20398;-72
2022/04/22 09:20:04;;;;;;;5.32;2.47;;;15.70;80.30;;;;;;4957138;28;20058;-72
2022/04/22 09:22:36;;;;;;;12.40;2.50;;;15.90;76.80;;;;;;4956910;29;20031;-72
2022/04/22 09:25:02;;;;;;;;;;;16.00;79.60;;;;;;4955621;29;20066;-73
2022/04/22 09:27:42;;;;;;;5.22;2.55;;;16.10;77.70;;;;;;4934029;29;19922;-73
2022/04/22 09:30:09;;;;;;;3.83;2.20;;;16.20;71.80;;;;;;4940018;29;20035;-72
2022/04/22 09:32:40;;;;;;;8.93;2.63;;;16.30;73.00;;;;;;4940856;29;20039;-72
2022/04/22 09:35:15;;;;;;;4.75;2.13;;;16.40;69.30;;;;;;4955904;29;20054;-72
2022/04/22 09:43:33;;;;;;;9.85;2.30;;;16.60;68.90;;;;;;4961562;28;20043;-73
2022/04/22 09:45:59;;;;;;;7.30;2.30;;;16.70;66.40;;;;;;4956113;28;20501;-72
2022/04/22 09:48:25;;;;;;;5.55;2.35;;;16.80;67.10;;;;;;4960904;28;20516;-73
2022/04/22 09:50:55;;;;;;;5.47;2.40;;;16.90;62.80;;;;;;4971319;28;20043;-74
2022/04/22 09:53:35;;;;;;;4.38;2.40;;;17.10;63.70;;;;;;4971916;28;20043;-72
2022/04/22 09:56:06;;;;;;;6.93;2.53;;;17.30;66.40;;;;;;4987049;28;20074;-73
2022/04/22 09:58:32;;;;;;;4.28;2.30;;;17.30;62.10;;;;;;4954320;28;20561;-72
2022/04/22 10:01:04;;;;;;;4.60;2.40;;;17.50;61.50;;;;;;4953997;28;20114;-72
2022/04/22 10:03:39;;;;;;;9.53;2.47;;;17.60;61.30;;;;;;4956610;28;20090;-72
2022/04/22 10:06:05;;;;;;;5.03;2.10;;;17.80;63.30;;;;;;4956264;28;20697;-72
2022/04/22 10:08:39;;;;;;;4.75;2.30;;;17.90;60.40;;;;;;4966847;28;20507;-73
2022/04/22 10:11:06;;;;;;;3.60;2.10;;;18.00;58.80;;;;;;4956755;28;20409;-73
2022/04/22 10:13:39;;;;;;;6.10;2.40;;;18.20;57.90;;;;;;4971584;28;20031;-73
2022/04/22 10:16:08;;;;;;;12.18;2.70;;;18.20;56.80;;;;;;4987586;28;20409;-72
2022/04/22 10:18:35;;;;;;;5.78;2.45;;;18.30;60.80;;;;;;4946820;28;20047;-72
2022/04/22 10:21:02;;;;;;;10.88;2.30;;;18.40;56.90;;;;;;4955447;28;20433;-72
2022/04/22 10:23:29;;;;;;;8.93;2.50;;;18.50;58.50;;;;;;4956793;28;20051;-72
2022/04/22 10:25:56;;;;;;;7.90;2.58;;;18.60;60.50;;;;;;4955224;29;20074;-72
2022/04/22 10:28:23;;;;;;;11.88;2.50;;;18.60;59.30;;;;;;4953471;28;20520;-72
2022/04/22 10:30:52;;;;;;;5.63;2.40;;;18.80;58.10;;;;;;4957079;28;20534;-72
2022/04/22 10:33:23;;;;;;;5.35;2.50;;;18.90;56.20;;;;;;4970277;28;20561;-71
2022/04/22 10:36:00;;;;;;;4.53;2.47;;;18.90;55.80;;;;;;4955259;28;20493;-71
2022/04/22 10:38:28;;;;;;;13.88;2.50;;;19.00;56.50;;;;;;4943299;28;20085;-71
2022/04/22 10:40:55;;;;;;;10.27;2.75;;;19.00;56.10;;;;;;4977043;28;20051;-72
2022/04/22 10:43:24;;;;;;;7.28;2.70;;;19.00;57.60;;;;;;4945940;28;20066;-72
2022/04/22 10:48:39;;;;;;;4.45;2.38;;;19.10;57.60;;;;;;4945488;28;20047;-73
2022/04/22 10:51:07;;;;;;;5.32;2.55;;;19.20;57.70;;;;;;4958984;28;20074;-72
2022/04/22 10:53:47;;;;;;;4.82;2.30;;;19.30;58.20;;;;;;4947512;29;20051;-72
2022/04/22 10:56:33;;;;;;;5.03;2.70;;;19.40;57.80;;;;;;4930856;28;20051;-72
2022/04/22 10:59:24;;;;;;;14.68;2.80;;;19.50;54.20;;;;;;4942994;28;20047;-72
2022/04/22 11:01:52;;;;;;;16.20;3.08;;;19.60;57.40;;;;;;4937020;28;20129;-72
2022/04/22 11:04:26;;;;;;;8.02;2.92;;;19.60;55.90;;;;;;4930225;29;20043;-72
2022/04/22 11:06:52;;;;;;;4.82;2.50;;;19.70;57.10;;;;;;4946457;28;20040;-72
2022/04/22 11:09:29;;;;;;;7.15;2.85;;;19.70;54.90;;;;;;4945121;28;20035;-72
2022/04/22 11:11:55;;;;;;;3.83;2.38;;;19.90;55.80;;;;;;4939426;28;20043;-72
2022/04/22 11:14:23;;;;;;;6.72;2.85;;;19.90;54.90;;;;;;4943320;28;20043;-72
2022/04/22 11:16:50;;;;;;;3.70;2.88;;;20.00;53.90;;;;;;4944327;28;20051;-72
2022/04/22 11:19:19;;;;;;;7.45;3.00;;;20.10;55.10;;;;;;4956236;28;20520;-72
2022/04/22 11:21:47;;;;;;;10.88;2.92;;;20.10;54.80;;;;;;4943416;28;20051;-73
2022/04/22 11:24:20;;;;;;;5.90;2.90;;;20.00;54.90;;;;;;4942136;28;20047;-72
2022/04/22 11:26:46;;;;;;;7.90;2.92;;;20.00;54.00;;;;;;4941379;28;20031;-73
2022/04/22 11:29:13;;;;;;;8.23;3.00;;;20.20;54.40;;;;;;4973963;28;20114;-73
2022/04/22 11:31:39;;;;;;;18.13;3.08;;;20.40;54.80;;;;;;4940857;28;20067;-73
2022/04/22 11:34:16;;;;;;;4.32;2.80;;;20.60;55.50;;;;;;4944675;28;20497;-73
2022/04/22 11:36:43;;;;;;;7.57;2.90;;;20.70;53.70;;;;;;4950045;29;20135;-72
2022/04/22 11:39:17;;;;;;;10.13;3.17;;;20.70;53.90;;;;;;4978754;28;20043;-72
2022/04/22 11:42:01;;;;;;;7.38;2.83;;;20.70;51.10;;;;;;4949711;29;20070;-73
2022/04/22 11:44:27;;;;;;;13.68;3.20;;;20.60;53.30;;;;;;4975131;28;20055;-73
2022/04/22 11:46:53;;;;;;;11.55;3.40;;;20.70;51.60;;;;;;4947667;28;20392;-73
2022/04/22 11:49:28;;;;;;;9.15;3.10;;;20.70;52.70;;;;;;4964901;28;20037;-73
2022/04/22 11:51:55;;;;;;;8.63;2.97;;;20.80;54.80;;;;;;4946981;28;20071;-72
2022/04/22 11:54:23;;;;;;;12.95;2.90;;;20.80;51.00;;;;;;4961739;28;20078;-76
2022/04/22 11:56:49;;;;;;;8.82;2.95;;;20.80;51.30;;;;;;4949684;29;20051;-75
2022/04/22 11:59:14;;;;;;;7.93;3.10;;;20.80;50.80;;;;;;4948080;28;20043;-76
2022/04/22 12:10:00;;;;;;;6.28;3.58;;;21.00;52.40;;;;;;4962113;28;20065;-76
2022/04/22 12:12:31;;;;;;;3.78;2.60;;;21.10;50.00;;;;;;4980859;28;20043;-76
2022/04/22 12:15:10;;;;;;;6.87;3.10;;;21.10;49.50;;;;;;4947961;28;20043;-76
2022/04/22 12:17:35;;;;;;;7.13;2.90;;;21.20;48.40;;;;;;4950974;28;20306;-77
2022/04/22 12:20:01;;;;;;;7.20;3.50;;;21.20;49.20;;;;;;4964275;28;20074;-77
2022/04/22 12:22:26;;;;;;;5.50;3.22;;;21.30;48.20;;;;;;4969703;28;20043;-77
2022/04/22 12:25:09;;;;;;;10.73;3.30;;;21.40;48.80;;;;;;4945900;28;20043;-76
2022/04/22 12:27:35;;;;;;;15.07;3.30;;;21.60;50.30;;;;;;4982566;28;20039;-73
2022/04/22 12:30:02;;;;;;;6.28;3.25;;;21.70;48.90;;;;;;4946391;28;20126;-72
2022/04/22 12:32:28;;;;;;;4.68;3.00;;;21.80;47.70;;;;;;4941544;29;20050;-72
2022/04/22 12:35:15;;;;;;;7.97;3.25;;;21.80;48.50;;;;;;4939508;28;20222;-72
2022/04/22 12:37:54;;;;;;;6.13;3.38;;;21.60;48.30;;;;;;4972931;28;20052;-70
2022/04/22 12:40:23;;;;;;;6.95;3.60;;;21.80;48.40;;;;;;4949336;28;20047;-73
2022/04/22 12:42:50;;;;;;;12.15;4.15;;;21.80;47.70;;;;;;4959763;28;20098;-71
2022/04/22 12:54:08;;;;;;;6.32;3.92;;;21.30;48.60;;;;;;4975666;28;20091;-71
2022/04/22 12:56:35;;;;;;;8.88;3.80;;;21.50;49.50;;;;;;4978115;28;20051;-72
2022/04/22 12:59:03;;;;;;;10.43;4.30;;;21.70;48.00;;;;;;4942811;28;20043;-72
2022/04/22 13:01:37;;;;;;;9.80;4.18;;;21.60;47.70;;;;;;4942843;28;20087;-73
2022/04/22 13:04:05;;;;;;;7.25;4.18;;;21.60;48.70;;;;;;4975213;28;20050;-73
2022/04/22 13:06:47;;;;;;;12.35;4.10;;;21.60;50.10;;;;;;4945096;28;20031;-73
2022/04/22 13:09:16;;;;;;;12.10;4.60;;;21.70;48.20;;;;;;4957456;28;20086;-73
2022/04/22 13:11:43;;;;;;;14.52;4.75;;;21.90;46.60;;;;;;4977316;28;20079;-73
2022/04/22 13:14:09;;;;;;;7.07;4.32;;;21.90;47.40;;;;;;4981481;28;20039;-72
2022/04/22 13:16:35;;;;;;;8.93;4.80;;;21.90;47.10;;;;;;4953757;28;20138;-72
2022/04/22 13:19:02;;;;;;;8.52;4.47;;;21.70;47.90;;;;;;4979206;28;20039;-74
2022/04/22 13:21:27;;;;;;;10.55;4.65;;;21.70;47.60;;;;;;4952013;28;20045;-72
2022/04/22 13:23:53;;;;;;;10.20;4.50;;;21.60;48.50;;;;;;4952862;28;20052;-73
2022/04/22 13:26:20;;;;;;;8.82;4.53;;;21.30;47.90;;;;;;4950546;28;20062;-73
2022/04/22 13:28:46;;;;;;;7.40;4.80;;;21.20;49.80;;;;;;4948372;28;21391;-73
2022/04/22 13:31:12;;;;;;;9.80;4.70;;;21.30;49.30;;;;;;4941432;28;20061;-73
2022/04/22 13:33:38;;;;;;;11.25;5.07;;;21.50;49.70;;;;;;4943293;28;20646;-72
2022/04/22 13:36:04;;;;;;;6.93;4.63;;;21.70;48.20;;;;;;4943955;28;20046;-73
2022/04/22 13:38:31;;;;;;;10.40;4.70;;;21.80;48.00;;;;;;4943946;28;20039;-73
2022/04/22 13:40:57;;;;;;;10.90;4.60;;;21.90;47.90;;;;;;4972868;28;20490;-73
2022/04/22 13:43:23;;;;;;;10.82;5.00;;;21.80;48.70;;;;;;4944057;28;20040;-72
2022/04/22 13:54:02;;;;;;;13.13;4.78;;;21.00;50.00;;;;;;4948929;28;20104;-73
2022/04/22 13:56:27;;;;;;;6.75;4.57;;;21.00;51.50;;;;;;4976953;28;20047;-72
2022/04/22 13:58:53;;;;;;;9.25;4.30;;;21.00;50.70;;;;;;4944135;28;20061;-72
2022/04/22 14:01:19;;;;;;;9.48;4.47;;;21.30;52.40;;;;;;4945985;28;20039;-71
2022/04/22 14:03:44;;;;;;;9.75;4.82;;;21.60;50.80;;;;;;4944111;28;20048;-74
2022/04/22 14:06:10;;;;;;;7.20;4.53;;;21.80;50.60;;;;;;4975219;28;20516;-71